РПИ Ташкент

Руководство

Evgeny Vygornitsky*

Куратор
Инструкторы РПИ
Evgeny Vygornitsky (Supervisor)
Входит в состав
Центральная Азия

Диспетчеры РПИ

Диспетчер Рейтинг Допуски *
Anatoly Bajenov Senior Student UTTR_CTR  *
Evgeniy Dedyaev Senior Student UTTR_CTR  *
Khurshidjon Ismoilov Senior Student UTTR_CTR  *
Vitaliy Alekseyev Controller UTTR_CTR
Arman Maxatov Student 2 UTTT_TWR
Nikita Zikeev Senior Student UTTT_APP
Timofey Abramchuck Senior Student UTTT_GND

Аэропорты РПИ

ICAO Город Название Погода
UTTT Ташкент Ташкент UTTT 162230Z 07006KT CAVOK 25/12 Q1007 R08R/CLRD70 NOSIG
UTNU Ургенч Ургенч UTNU 162230Z 33004KT CAVOK 26/13 Q1007 R31/CLRD70 NOSIG
UTFA Андижан Андижан
UTFN Наманган Наманган UTFN 162230Z 07006KT 9999 OVC050CB 25/16 Q1008 R28/CLRD70 NOSIG
UTNN Нукус Нукус UTNN 162230Z 30004KT CAVOK 25/12 Q1008 R33/CLRD60 NOSIG
UTFF Фергана Фергана UTFF 162230Z 33004KT 9999 NSC 26/11 Q1009 R18/CLRD70